Time;durP1;ratioP1;P1;durP2;ratioP2;P2;SDS_P1;SDS_P2;PMS_P1;PMS_P2;Temp;Humidity;BMP_temperature;BMP_pressure;BME280_temperature;BME280_humidity;BME280_pressure;Samples;Min_cycle;Max_cycle;Signal;HPM_P1;HPM_P2
2021/01/18 00:00:33;;;;;;;44.28;25.02;;;;;;;-0.50;100.00;101127.53;5228954;28;20044;-80
2021/01/18 00:03:04;;;;;;;45.13;25.50;;;;;;;-0.43;100.00;101120.78;5229017;28;20032;-80
2021/01/18 00:05:34;;;;;;;44.70;25.85;;;;;;;-0.54;100.00;101122.31;5229329;28;20037;-80
2021/01/18 00:08:05;;;;;;;48.80;25.92;;;;;;;-0.60;100.00;101123.09;5228741;28;20045;-80
2021/01/18 00:10:35;;;;;;;48.25;26.95;;;;;;;-0.54;100.00;101123.19;5228995;28;20364;-80
2021/01/18 00:13:05;;;;;;;47.22;26.33;;;;;;;-0.39;100.00;101117.47;5227299;28;20031;-79
2021/01/18 00:15:36;;;;;;;44.70;26.15;;;;;;;-0.44;100.00;101124.19;5228857;28;20020;-80
2021/01/18 00:18:06;;;;;;;44.25;25.98;;;;;;;-0.38;100.00;101116.63;5228888;28;20651;-80
2021/01/18 00:20:36;;;;;;;46.63;26.80;;;;;;;-0.42;100.00;101119.97;5228968;28;20036;-80
2021/01/18 00:23:07;;;;;;;46.80;26.63;;;;;;;-0.37;100.00;101123.47;5225955;28;20150;-80
2021/01/18 00:25:37;;;;;;;46.05;25.98;;;;;;;-0.15;100.00;101122.97;5226996;28;20106;-79
2021/01/18 00:28:07;;;;;;;47.20;26.55;;;;;;;-0.15;100.00;101118.72;5208679;28;20025;-80
2021/01/18 00:30:39;;;;;;;47.05;26.85;;;;;;;-0.17;100.00;101119.53;5224932;28;20037;-80
2021/01/18 00:33:09;;;;;;;47.80;26.92;;;;;;;-0.07;100.00;101121.41;5226090;28;20029;-80
2021/01/18 00:35:39;;;;;;;50.15;27.63;;;;;;;0.03;100.00;101125.00;5225500;28;20611;-80
2021/01/18 00:38:10;;;;;;;46.65;26.75;;;;;;;-0.12;100.00;101116.19;5224970;28;20025;-80
2021/01/18 00:40:40;;;;;;;45.83;26.23;;;;;;;-0.03;100.00;101122.34;5225533;28;20426;-80
2021/01/18 00:43:10;;;;;;;44.83;26.40;;;;;;;-0.18;100.00;101123.78;5225863;28;20032;-80
2021/01/18 00:45:40;;;;;;;47.42;27.02;;;;;;;-0.29;100.00;101112.50;5226121;28;20024;-80
2021/01/18 00:48:11;;;;;;;52.05;28.40;;;;;;;-0.21;100.00;101107.50;5223497;28;20602;-80
2021/01/18 00:50:41;;;;;;;49.42;28.15;;;;;;;-0.23;100.00;101119.44;5225494;28;20033;-80
2021/01/18 00:53:11;;;;;;;50.95;28.88;;;;;;;-0.25;100.00;101113.41;5224131;28;20025;-80
2021/01/18 00:55:42;;;;;;;54.15;29.42;;;;;;;-0.22;100.00;101110.91;5225611;28;20028;-80
2021/01/18 00:58:12;;;;;;;56.25;30.33;;;;;;;-0.25;100.00;101113.41;5224666;28;20422;-80
2021/01/18 01:00:43;;;;;;;57.75;30.30;;;;;;;-0.21;100.00;101113.47;5206232;28;20055;-80
2021/01/18 01:03:13;;;;;;;55.45;30.42;;;;;;;-0.27;100.00;101108.25;5206395;28;20025;-80
2021/01/18 01:05:43;;;;;;;53.72;29.55;;;;;;;-0.15;100.00;101112.72;5220789;28;20065;-80
2021/01/18 01:08:13;;;;;;;51.22;28.15;;;;;;;-0.15;100.00;101105.88;5204124;28;20020;-80
2021/01/18 01:10:44;;;;;;;53.17;29.73;;;;;;;-0.21;100.00;101110.06;5242159;28;20115;-80
2021/01/18 01:13:14;;;;;;;55.38;30.10;;;;;;;-0.20;100.00;101109.22;5207321;28;20025;-80
2021/01/18 01:15:44;;;;;;;54.20;30.30;;;;;;;-0.24;100.00;101110.00;5209699;28;20716;-80
2021/01/18 01:18:15;;;;;;;57.15;30.13;;;;;;;-0.18;100.00;101104.97;5204410;28;20099;-78
2021/01/18 01:20:45;;;;;;;59.15;30.98;;;;;;;-0.15;100.00;101103.31;5204059;28;20420;-78
2021/01/18 01:23:15;;;;;;;59.15;31.38;;;;;;;-0.10;100.00;101111.06;5219048;28;20096;-78
2021/01/18 01:25:45;;;;;;;61.35;33.33;;;;;;;-0.10;100.00;101113.63;5224898;28;20045;-79
2021/01/18 01:28:16;;;;;;;60.75;31.85;;;;;;;0.09;100.00;101108.81;5224542;28;20060;-78
2021/01/18 01:30:46;;;;;;;60.70;32.38;;;;;;;0.14;100.00;101110.63;5206794;28;20029;-78
2021/01/18 01:33:16;;;;;;;60.30;31.38;;;;;;;0.17;100.00;101102.94;5224454;28;20036;-78
2021/01/18 01:35:46;;;;;;;59.17;31.38;;;;;;;0.08;100.00;101102.78;5224544;28;20494;-78
2021/01/18 01:38:17;;;;;;;60.88;32.28;;;;;;;0.06;100.00;101107.06;5222627;28;20541;-78
2021/01/18 01:40:47;;;;;;;61.92;34.05;;;;;;;-0.01;100.00;101107.81;5206230;28;20027;-79
2021/01/18 01:43:17;;;;;;;61.85;32.10;;;;;;;0.03;100.00;101099.31;5224049;28;20094;-79
2021/01/18 01:45:48;;;;;;;59.50;32.70;;;;;;;0.06;100.00;101103.63;5224619;28;20033;-81
2021/01/18 01:48:19;;;;;;;63.75;34.03;;;;;;;0.07;100.00;101101.06;5224791;28;20032;-80
2021/01/18 01:50:49;;;;;;;64.07;33.58;;;;;;;0.07;100.00;101102.78;5222891;28;20029;-79
2021/01/18 01:53:28;;;;;;;68.18;34.60;;;;;;;0.07;100.00;101100.22;5223757;28;20108;-78
2021/01/18 01:56:00;;;;;;;56.92;31.30;;;;;;;0.30;100.00;101094.56;5224382;28;20025;-80
2021/01/18 01:58:31;;;;;;;59.88;32.53;;;;;;;0.37;100.00;101093.78;5224263;28;20514;-79
2021/01/18 02:01:03;;;;;;;59.15;32.25;;;;;;;0.16;100.00;101096.06;5224248;28;20029;-78
2021/01/18 02:03:39;;;;;;;62.50;32.60;;;;;;;0.04;100.00;101095.88;5222415;28;20052;-78
2021/01/18 02:06:10;;;;;;;62.20;31.80;;;;;;;0.10;100.00;101101.16;5223788;28;20410;-79
2021/01/18 02:08:40;;;;;;;71.88;35.65;;;;;;;0.03;100.00;101106.16;5223816;28;20019;-78
2021/01/18 02:11:11;;;;;;;69.88;35.80;;;;;;;0.05;100.00;101099.34;5224080;28;20474;-80
2021/01/18 02:14:20;;;;;;;71.10;36.38;;;;;;;0.06;100.00;101098.50;5205504;28;20020;-79
2021/01/18 02:17:02;;;;;;;76.30;37.30;;;;;;;0.14;100.00;101099.47;5224113;28;20095;-80
2021/01/18 02:19:54;;;;;;;75.35;36.58;;;;;;;0.49;100.00;101098.22;5222712;28;20065;-79
2021/01/18 02:22:55;;;;;;;76.22;37.50;;;;;;;0.36;100.00;101094.63;5223700;28;20029;-79
2021/01/18 02:25:35;;;;;;;70.30;35.00;;;;;;;0.53;100.00;101088.00;5223393;28;20029;-79
2021/01/18 02:28:05;;;;;;;71.40;35.33;;;;;;;0.60;100.00;101089.84;5223345;28;20721;-79
2021/01/18 02:31:09;;;;;;;75.38;36.40;;;;;;;0.52;100.00;101090.59;5223356;28;20120;-79
2021/01/18 02:33:57;;;;;;;67.78;34.22;;;;;;;0.61;100.00;101090.69;5221014;28;20031;-79
2021/01/18 02:36:56;;;;;;;75.60;37.08;;;;;;;0.71;100.00;101088.25;5205748;28;20059;-79
2021/01/18 02:39:49;;;;;;;68.90;35.15;;;;;;;0.76;100.00;101085.72;5218287;28;20033;-79
2021/01/18 02:42:32;;;;;;;77.75;36.47;;;;;;;0.69;100.00;101089.09;5223193;28;20107;-78
2021/01/18 02:45:05;;;;;;;77.38;35.65;;;;;;;0.64;100.00;101091.59;5222867;28;20067;-78
2021/01/18 02:47:37;;;;;;;69.10;34.33;;;;;;;0.70;100.00;101085.66;5223324;28;20561;-79
2021/01/18 02:50:08;;;;;;;72.63;35.33;;;;;;;0.81;100.00;101090.09;5205595;28;20035;-80
2021/01/18 02:52:39;;;;;;;69.85;34.35;;;;;;;0.86;100.00;101091.00;5223166;28;20437;-80
2021/01/18 02:55:11;;;;;;;69.65;33.50;;;;;;;0.85;100.00;101090.97;5223032;28;20029;-79
2021/01/18 02:57:43;;;;;;;72.63;33.22;;;;;;;0.85;100.00;101096.97;5222681;28;20033;-79
2021/01/18 03:00:20;;;;;;;71.22;34.03;;;;;;;0.87;100.00;101097.88;5222909;28;20025;-80
2021/01/18 03:03:29;;;;;;;76.47;34.97;;;;;;;0.94;100.00;101102.25;5223326;28;20025;-79
2021/01/18 03:06:11;;;;;;;61.53;30.52;;;;;;;0.94;100.00;101096.22;5200470;28;20036;-80
2021/01/18 03:08:46;;;;;;;69.32;32.78;;;;;;;0.95;100.00;101103.09;5223202;28;20029;-81
2021/01/18 03:11:22;;;;;;;66.57;32.58;;;;;;;0.92;100.00;101096.19;5222746;28;20036;-81
2021/01/18 03:14:26;;;;;;;72.05;31.50;;;;;;;0.98;100.00;101093.72;5222761;28;20556;-81
2021/01/18 03:16:58;;;;;;;69.60;30.38;;;;;;;0.99;100.00;101087.72;5210844;28;20036;-81
2021/01/18 03:19:42;;;;;;;62.38;29.60;;;;;;;0.97;100.00;101091.09;5222634;28;20021;-79
2021/01/18 03:22:24;;;;;;;57.25;21.65;;;;;;;0.98;100.00;101086.00;5222478;28;20536;-82
2021/01/18 03:25:05;;;;;;;66.53;28.85;;;;;;;1.02;100.00;101087.75;5222800;28;20095;-80
2021/01/18 03:27:49;;;;;;;59.58;27.70;;;;;;;1.03;100.00;101096.34;5222161;28;20017;-79
2021/01/18 03:30:21;;;;;;;67.07;28.75;;;;;;;1.07;100.00;101098.09;5222904;28;20028;-80
2021/01/18 03:32:54;;;;;;;66.10;28.30;;;;;;;1.14;100.00;101089.56;5222002;28;20623;-80
2021/01/18 03:35:24;;;;;;;69.97;29.23;;;;;;;1.12;100.00;101102.44;5222584;28;20025;-81
2021/01/18 03:37:56;;;;;;;64.53;27.80;;;;;;;1.12;100.00;101102.44;5222002;28;20025;-80
2021/01/18 03:40:28;;;;;;;67.65;27.70;;;;;;;1.12;100.00;101093.84;5214303;28;20110;-80
2021/01/18 03:43:01;;;;;;;68.65;28.05;;;;;;;1.12;100.00;101099.00;5222419;28;20033;-80
2021/01/18 03:45:37;;;;;;;63.22;25.98;;;;;;;1.12;100.00;101099.00;5222383;28;20032;-80
2021/01/18 03:48:09;;;;;;;58.67;26.30;;;;;;;1.12;100.00;101099.88;5222078;28;20019;-80
2021/01/18 03:50:40;;;;;;;70.97;28.23;;;;;;;1.14;100.00;101105.91;5221520;28;20025;-80
2021/01/18 03:53:12;;;;;;;62.92;26.17;;;;;;;1.12;100.00;101102.44;5204262;28;20431;-81
2021/01/18 03:55:42;;;;;;;69.68;27.60;;;;;;;1.19;100.00;101103.34;5222293;28;20025;-80
2021/01/18 03:58:12;;;;;;;63.97;25.25;;;;;;;1.25;100.00;101099.13;5220678;28;20029;-80
2021/01/18 04:00:42;;;;;;;74.07;28.17;;;;;;;1.28;100.00;101103.44;5221198;28;20117;-80
2021/01/18 04:03:13;;;;;;;62.65;24.60;;;;;;;1.30;100.00;101096.59;5204044;28;20033;-79
2021/01/18 04:05:43;;;;;;;60.83;24.58;;;;;;;1.30;100.00;101091.47;5221870;28;20020;-80
2021/01/18 04:08:14;;;;;;;68.78;25.75;;;;;;;1.33;100.00;101094.94;5215402;28;20092;-79
2021/01/18 04:10:44;;;;;;;81.50;25.52;;;;;;;1.37;100.00;101094.09;5222488;28;20025;-80
2021/01/18 04:13:14;;;;;;;73.05;26.27;;;;;;;1.42;100.00;101095.00;5203428;28;20033;-79
2021/01/18 04:15:45;;;;;;;78.05;26.98;;;;;;;1.47;100.00;101093.34;5221942;28;20025;-79
2021/01/18 04:18:15;;;;;;;77.00;25.50;;;;;;;1.62;100.00;101095.19;5221988;28;20537;-80
2021/01/18 04:20:45;;;;;;;81.45;26.23;;;;;;;1.74;100.00;101095.31;5222240;28;20025;-80
2021/01/18 04:23:16;;;;;;;76.90;24.98;;;;;;;1.70;100.00;101094.41;5222081;28;20398;-79
2021/01/18 04:25:46;;;;;;;68.78;24.40;;;;;;;1.63;100.00;101092.66;5222257;28;20093;-79
2021/01/18 04:28:16;;;;;;;77.47;25.20;;;;;;;1.67;100.00;101088.34;5221574;28;20033;-79
2021/01/18 04:30:46;;;;;;;71.18;25.02;;;;;;;1.70;100.00;101088.38;5221858;28;20100;-80
2021/01/18 04:33:17;;;;;;;70.55;24.50;;;;;;;1.69;100.00;101084.06;5221882;28;20256;-79
2021/01/18 04:35:47;;;;;;;66.78;24.77;;;;;;;1.71;100.00;101098.69;5225237;28;20498;-79
2021/01/18 04:38:17;;;;;;;79.15;23.92;;;;;;;1.82;100.00;101090.22;5222020;28;20699;-79
2021/01/18 04:40:48;;;;;;;70.13;24.02;;;;;;;1.91;100.00;101089.41;5221394;28;20040;-79
2021/01/18 04:43:18;;;;;;;69.72;24.33;;;;;;;1.91;100.00;101086.84;5223429;28;20103;-80
2021/01/18 04:45:49;;;;;;;67.95;24.60;;;;;;;1.85;100.00;101086.81;5225765;28;20380;-79
2021/01/18 04:48:20;;;;;;;62.15;21.60;;;;;;;1.88;100.00;101085.13;5225180;28;20032;-81
2021/01/18 04:50:51;;;;;;;72.10;23.10;;;;;;;1.90;100.00;101087.69;5225599;28;20021;-79
2021/01/18 04:53:25;;;;;;;66.68;23.27;;;;;;;1.87;100.00;101082.53;5224979;28;20381;-78
2021/01/18 04:56:36;;;;;;;64.63;22.40;;;;;;;1.91;100.00;101079.97;5221100;28;20540;-78
2021/01/18 04:59:12;;;;;;;82.30;25.27;;;;;;;1.88;100.00;101086.81;5221107;28;20060;-78
2021/01/18 05:01:45;;;;;;;62.10;24.50;;;;;;;2.09;100.00;101080.09;5225048;28;20734;-81
2021/01/18 05:04:27;;;;;;;62.63;22.98;;;;;;;2.08;100.00;101075.81;5225211;28;20713;-80
2021/01/18 05:06:59;;;;;;;49.90;19.92;;;;;;;2.16;100.00;101087.00;5224384;28;20479;-80
2021/01/18 05:09:30;;;;;;;55.53;20.27;;;;;;;2.31;100.00;101081.09;5224464;28;20029;-79
2021/01/18 05:12:00;;;;;;;49.80;19.27;;;;;;;2.31;100.00;101081.09;5224845;28;20037;-79
2021/01/18 05:14:33;;;;;;;54.25;20.38;;;;;;;2.13;100.00;101081.84;5207254;28;20027;-80
2021/01/18 05:17:07;;;;;;;58.70;20.13;;;;;;;2.15;100.00;101077.56;5225314;28;20029;-80
2021/01/18 05:19:38;;;;;;;53.97;19.42;;;;;;;2.04;100.00;101073.19;5225334;28;20083;-79
2021/01/18 05:22:11;;;;;;;46.38;19.13;;;;;;;2.18;100.00;101076.72;5225220;28;20387;-79
2021/01/18 05:24:41;;;;;;;56.83;19.00;;;;;;;2.11;100.00;101070.66;5224868;28;20040;-79
2021/01/18 05:27:12;;;;;;;51.42;17.30;;;;;;;2.34;100.00;101073.38;5225130;28;20021;-79
2021/01/18 05:29:42;;;;;;;53.58;16.88;;;;;;;2.46;100.00;101078.56;5220002;28;20029;-79
2021/01/18 05:32:20;;;;;;;52.33;17.23;;;;;;;2.38;100.00;101082.84;5225164;28;20029;-79
2021/01/18 05:35:10;;;;;;;46.10;16.00;;;;;;;2.22;100.00;101075.88;5225027;28;20024;-79
2021/01/18 05:37:59;;;;;;;48.30;15.55;;;;;;;2.26;100.00;101087.94;5221179;28;20507;-79
2021/01/18 05:40:34;;;;;;;45.72;15.27;;;;;;;2.33;100.00;101092.28;5224835;28;20057;-79
2021/01/18 05:43:04;;;;;;;41.80;16.05;;;;;;;2.32;100.00;101091.41;5224594;28;20132;-79
2021/01/18 05:45:37;;;;;;;40.45;14.07;;;;;;;2.40;100.00;101096.59;5226942;28;20634;-79
2021/01/18 05:48:09;;;;;;;47.97;15.15;;;;;;;2.51;100.00;101097.53;5227295;28;20031;-79
2021/01/18 05:50:40;;;;;;;45.03;13.98;;;;;;;2.48;100.00;101097.53;5226410;28;20025;-79
2021/01/18 05:53:24;;;;;;;38.05;13.15;;;;;;;2.32;100.00;101098.28;5226958;28;20083;-79
2021/01/18 05:55:54;;;;;;;45.38;12.85;;;;;;;2.52;100.00;101101.84;5227127;28;20023;-79
2021/01/18 05:58:33;;;;;;;37.70;12.93;;;;;;;2.43;100.00;101091.47;5227460;28;20025;-79
2021/01/18 06:01:03;;;;;;;46.42;13.68;;;;;;;2.42;100.00;101097.47;5228831;28;20036;-79
2021/01/18 06:03:33;;;;;;;48.53;13.60;;;;;;;2.60;100.00;101100.16;5241235;28;20273;-79
2021/01/18 06:06:04;;;;;;;41.22;12.73;;;;;;;2.57;100.00;101097.56;5227836;28;20052;-80
2021/01/18 06:08:34;;;;;;;37.72;12.98;;;;;;;2.44;100.00;101104.38;5226826;28;20029;-79
2021/01/18 06:11:04;;;;;;;47.13;13.38;;;;;;;2.48;100.00;101094.94;5227125;28;20578;-79
2021/01/18 06:13:35;;;;;;;52.25;13.75;;;;;;;2.58;100.00;101094.13;5226620;28;20025;-79
2021/01/18 06:16:11;;;;;;;46.45;12.88;;;;;;;2.42;100.00;101095.78;5226120;28;20024;-80
2021/01/18 06:18:41;;;;;;;43.13;12.20;;;;;;;2.61;100.00;101101.88;5223348;28;20079;-80
2021/01/18 06:21:12;;;;;;;39.45;12.10;;;;;;;2.63;100.00;101090.72;5225110;28;20483;-80
2021/01/18 06:23:42;;;;;;;38.70;12.02;;;;;;;2.60;100.00;101106.19;5225076;28;20079;-79
2021/01/18 06:26:13;;;;;;;39.95;12.32;;;;;;;2.61;100.00;101104.44;5226397;28;20099;-79
2021/01/18 06:28:44;;;;;;;47.72;13.32;;;;;;;2.65;100.00;101108.78;5225887;28;20025;-79
2021/01/18 06:31:15;;;;;;;38.67;12.20;;;;;;;2.72;100.00;101111.38;5226807;28;20408;-79
2021/01/18 06:33:47;;;;;;;48.05;12.63;;;;;;;2.71;100.00;101113.97;5225203;28;20029;-79
2021/01/18 06:36:21;;;;;;;40.92;11.80;;;;;;;2.71;100.00;101116.53;5228327;28;20017;-80
2021/01/18 06:38:57;;;;;;;39.67;11.30;;;;;;;2.64;100.00;101122.50;5227770;28;20127;-79
2021/01/18 06:41:38;;;;;;;38.20;11.65;;;;;;;2.80;100.00;101119.16;5227654;28;20021;-79
2021/01/18 06:44:09;;;;;;;45.45;11.45;;;;;;;2.80;100.00;101125.19;5224554;28;20021;-79
2021/01/18 06:46:39;;;;;;;38.45;11.70;;;;;;;2.81;100.00;101128.63;5227900;28;20021;-79
2021/01/18 06:49:13;;;;;;;43.28;10.85;;;;;;;2.78;100.00;101111.41;5227398;28;20017;-79
2021/01/18 06:51:51;;;;;;;52.92;12.73;;;;;;;2.81;100.00;101116.59;5227593;28;20039;-79
2021/01/18 06:54:27;;;;;;;40.33;11.90;;;;;;;2.75;100.00;101120.84;5226854;28;20560;-79
2021/01/18 06:57:18;;;;;;;50.30;11.48;;;;;;;2.75;100.00;101128.59;5226229;28;20090;-79
2021/01/18 06:59:53;;;;;;;39.53;12.43;;;;;;;2.74;100.00;101129.47;5226205;28;20057;-79
2021/01/18 07:02:27;;;;;;;41.05;13.55;;;;;;;2.74;100.00;101130.34;5226617;28;20021;-79
2021/01/18 07:05:11;;;;;;;38.88;12.27;;;;;;;2.58;100.00;101135.38;5226147;28;20067;-79
2021/01/18 07:07:54;;;;;;;38.30;12.50;;;;;;;2.70;100.00;101138.03;5222717;28;20027;-79
2021/01/18 07:10:30;;;;;;;42.10;13.80;;;;;;;2.81;100.00;101146.69;5227080;28;20060;-79
2021/01/18 07:13:03;;;;;;;;;;;;;;;2.73;100.00;101148.38;5226377;28;20021;-80
2021/01/18 07:15:38;;;;;;;42.38;11.85;;;;;;;2.60;100.00;101144.88;5226194;28;19908;-79
2021/01/18 07:18:10;;;;;;;39.63;12.00;;;;;;;2.80;100.00;101144.97;5228304;28;20029;-79
2021/01/18 07:20:45;;;;;;;40.33;11.48;;;;;;;2.76;100.00;101146.69;5226176;28;20589;-79
2021/01/18 07:23:37;;;;;;;31.23;11.50;;;;;;;2.71;100.00;101155.25;5225989;28;20488;-79
2021/01/18 07:26:32;;;;;;;37.45;11.18;;;;;;;2.58;100.00;101151.75;5227021;28;20029;-80
2021/01/18 07:29:05;;;;;;;33.83;10.75;;;;;;;2.59;100.00;101145.72;5221848;28;20049;-79
2021/01/18 07:31:42;;;;;;;32.42;9.52;;;;;;;2.72;100.00;101150.06;5227215;28;20025;-79
2021/01/18 07:34:15;;;;;;;37.03;10.00;;;;;;;2.79;100.00;101144.09;5227365;28;20527;-80
2021/01/18 07:36:45;;;;;;;31.95;10.07;;;;;;;2.72;100.00;101151.81;5226599;28;20032;-79
2021/01/18 07:39:29;;;;;;;35.88;10.23;;;;;;;2.75;100.00;101147.53;5226750;28;20025;-79
2021/01/18 07:42:00;;;;;;;35.67;10.00;;;;;;;2.72;100.00;101149.22;5208252;28;20585;-79
2021/01/18 07:44:35;;;;;;;39.58;9.77;;;;;;;2.79;100.00;101149.28;5224834;28;20090;-79
2021/01/18 07:47:15;;;;;;;30.88;9.52;;;;;;;2.74;100.00;101143.22;5225908;28;20116;-79
2021/01/18 07:49:47;;;;;;;38.95;9.32;;;;;;;2.73;100.00;101158.69;5227013;28;20039;-79
2021/01/18 07:52:28;;;;;;;32.08;9.32;;;;;;;2.68;100.00;101150.09;5226319;28;20108;-79
2021/01/18 07:54:59;;;;;;;29.75;10.23;;;;;;;2.75;100.00;101156.97;5226060;28;20033;-80
2021/01/18 07:57:39;;;;;;;40.05;11.15;;;;;;;2.75;100.00;101157.84;5226868;28;20057;-79
2021/01/18 08:00:19;;;;;;;36.30;10.13;;;;;;;2.74;100.00;101157.84;5227746;28;20032;-80
2021/01/18 08:02:50;;;;;;;38.10;9.88;;;;;;;2.82;100.00;101154.44;5225042;28;20063;-79
2021/01/18 08:05:27;;;;;;;30.90;9.93;;;;;;;2.80;100.00;101161.31;5225933;28;20029;-80
2021/01/18 08:08:10;;;;;;;32.75;9.60;;;;;;;2.93;100.00;101162.22;5225408;28;20044;-79
2021/01/18 08:10:59;;;;;;;30.58;8.93;;;;;;;2.94;100.00;101163.94;5226454;28;20025;-79
2021/01/18 08:13:43;;;;;;;32.33;8.55;;;;;;;2.91;100.00;101172.56;5225793;28;20504;-79
2021/01/18 08:16:18;;;;;;;25.83;8.40;;;;;;;2.88;100.00;101166.50;5225884;28;20132;-79
2021/01/18 08:18:51;;;;;;;23.43;7.77;;;;;;;2.90;100.00;101162.22;5227282;28;20087;-79
2021/01/18 08:21:43;;;;;;;28.10;7.78;;;;;;;3.01;100.00;101163.13;5229881;28;20937;-79
2021/01/18 08:24:16;;;;;;;23.08;7.40;;;;;;;3.06;100.00;101158.84;5230562;28;20033;-79
2021/01/18 08:27:06;;;;;;;23.23;7.43;;;;;;;3.00;100.00;101143.34;5231225;28;20083;-79
2021/01/18 08:29:48;;;;;;;20.45;7.07;;;;;;;3.01;100.00;101166.56;5230260;28;20121;-79
2021/01/18 08:32:31;;;;;;;25.63;7.82;;;;;;;2.95;100.00;101161.38;5230425;28;20025;-80
2021/01/18 08:35:08;;;;;;;36.83;10.98;;;;;;;2.80;100.00;101161.31;5228606;28;20370;-79
2021/01/18 08:37:38;;;;;;;22.70;8.60;;;;;;;2.84;100.00;101167.38;5224031;28;20068;-80
2021/01/18 08:40:13;;;;;;;24.70;6.90;;;;;;;2.84;100.00;101164.78;5229980;28;20047;-79
2021/01/18 08:42:52;;;;;;;22.38;7.95;;;;;;;2.90;100.00;101167.38;5230473;28;20074;-80
2021/01/18 08:45:24;;;;;;;19.25;7.25;;;;;;;2.86;100.00;101163.91;5212989;28;20025;-79
2021/01/18 08:47:56;;;;;;;28.02;7.80;;;;;;;3.11;100.00;101167.47;5229494;28;20027;-79
2021/01/18 08:50:34;;;;;;;26.33;7.47;;;;;;;3.31;100.00;101165.81;5222296;28;20511;-79
2021/01/18 08:53:23;;;;;;;23.48;6.75;;;;;;;3.32;100.00;101163.25;5230170;28;20029;-79
2021/01/18 08:55:54;;;;;;;21.55;5.72;;;;;;;3.35;100.00;101163.25;5230174;28;20108;-80
2021/01/18 08:58:44;;;;;;;17.50;5.45;;;;;;;3.47;100.00;101162.41;5230542;28;20033;-80
2021/01/18 09:01:15;;;;;;;18.70;5.90;;;;;;;3.64;100.00;101152.09;5230617;28;20033;-80
2021/01/18 09:03:56;;;;;;;19.15;5.50;;;;;;;4.07;100.00;101160.75;5228165;28;20103;-79
2021/01/18 09:06:27;;;;;;;23.45;5.85;;;;;;;3.98;100.00;101151.28;5225589;28;20578;-79
2021/01/18 09:09:06;;;;;;;19.70;5.05;;;;;;;4.09;100.00;101156.47;5222460;28;20048;-79
2021/01/18 09:11:36;;;;;;;21.65;6.68;;;;;;;4.25;100.00;101156.44;5228278;28;20036;-79
2021/01/18 09:14:09;;;;;;;18.77;5.47;;;;;;;4.43;100.00;101146.06;5228374;28;20112;-79
2021/01/18 09:16:40;;;;;;;27.15;7.47;;;;;;;4.38;100.00;101150.41;5228705;28;20029;-79
2021/01/18 09:19:10;;;;;;;22.85;6.30;;;;;;;4.31;100.00;101147.81;5227922;28;20051;-79
2021/01/18 09:21:41;;;;;;;29.60;9.68;;;;;;;4.21;100.00;101152.16;5227566;28;20086;-79
2021/01/18 09:24:12;;;;;;;21.20;5.80;;;;;;;4.41;100.00;101144.34;5225737;28;20451;-80
2021/01/18 09:26:43;;;;;;;23.55;7.13;;;;;;;4.54;100.00;101141.75;5227793;28;20550;-80
2021/01/18 09:29:22;;;;;;;14.88;5.40;;;;;;;4.45;100.00;101146.91;5226498;28;20029;-80
2021/01/18 09:31:53;;;;;;;17.05;4.70;;;;;;;4.45;100.00;101143.50;5229008;28;20020;-79
2021/01/18 09:34:23;;;;;;;19.05;4.53;;;;;;;4.30;100.00;101135.75;5228209;28;20108;-79
2021/01/18 09:37:04;;;;;;;14.85;4.75;;;;;;;4.23;100.00;101139.19;5209520;28;20021;-81
2021/01/18 09:39:37;;;;;;;13.13;4.57;;;;;;;4.36;100.00;101131.44;5224875;28;20108;-81
2021/01/18 09:42:08;;;;;;;19.70;4.13;;;;;;;4.61;100.00;101138.25;5223839;28;20025;-79
2021/01/18 09:44:38;;;;;;;14.77;4.45;;;;;;;4.71;100.00;101129.63;5223328;28;20025;-80
2021/01/18 09:47:09;;;;;;;14.90;5.00;;;;;;;4.54;100.00;101128.81;5206802;28;20384;-79
2021/01/18 09:49:39;;;;;;;14.55;4.60;;;;;;;4.48;100.00;101126.22;5223799;28;20057;-79
2021/01/18 09:52:10;;;;;;;18.10;5.00;;;;;;;4.53;100.00;101123.63;5199913;28;20462;-79
2021/01/18 09:54:46;;;;;;;15.88;5.22;;;;;;;4.55;100.00;101121.88;5224235;28;20028;-80
2021/01/18 09:57:19;;;;;;;18.23;5.65;;;;;;;4.50;100.00;101114.13;5224379;28;20033;-80
2021/01/18 09:59:50;;;;;;;20.65;5.45;;;;;;;4.45;100.00;101123.63;5224501;28;20116;-79
2021/01/18 10:02:22;;;;;;;17.10;5.07;;;;;;;4.47;100.00;101123.66;5224070;28;20033;-79
2021/01/18 10:04:53;;;;;;;15.98;4.82;;;;;;;4.60;100.00;101123.59;5224012;28;20052;-80
2021/01/18 10:07:25;;;;;;;18.15;5.03;;;;;;;4.69;100.00;101114.94;5224498;28;20036;-79
2021/01/18 10:09:56;;;;;;;23.83;4.85;;;;;;;4.64;100.00;101111.53;5224068;28;20021;-79
2021/01/18 10:12:32;;;;;;;17.08;5.00;;;;;;;4.68;100.00;101108.91;5224113;28;20045;-79
2021/01/18 10:15:04;;;;;;;20.20;5.75;;;;;;;4.58;100.00;101116.69;5224108;28;20395;-79
2021/01/18 10:17:35;;;;;;;17.35;5.30;;;;;;;4.66;100.00;101104.59;5222575;28;20115;-80
2021/01/18 10:20:11;;;;;;;20.75;5.80;;;;;;;4.66;100.00;101108.03;5219573;28;20459;-79
2021/01/18 10:22:42;;;;;;;19.70;5.55;;;;;;;4.57;100.00;101115.84;5224033;28;20387;-81
2021/01/18 10:25:12;;;;;;;17.25;5.57;;;;;;;4.61;100.00;101102.03;5223878;28;20029;-79
2021/01/18 10:27:50;;;;;;;20.23;5.55;;;;;;;4.46;100.00;101101.22;5224163;28;20029;-79
2021/01/18 10:30:25;;;;;;;18.95;5.60;;;;;;;4.48;100.00;101097.75;5223592;28;20103;-79
2021/01/18 10:32:57;;;;;;;20.35;5.90;;;;;;;4.58;100.00;101096.88;5223727;28;20032;-80
2021/01/18 10:35:32;;;;;;;16.67;6.18;;;;;;;4.59;100.00;101093.41;5225249;28;20074;-79
2021/01/18 10:38:25;;;;;;;20.77;6.68;;;;;;;4.78;100.00;101095.06;5221796;28;20117;-79
2021/01/18 10:41:08;;;;;;;18.85;6.43;;;;;;;4.83;100.00;101095.91;5223588;28;20399;-79
2021/01/18 10:43:39;;;;;;;18.23;5.78;;;;;;;4.84;100.00;101087.25;5223840;28;20452;-80
2021/01/18 10:46:16;;;;;;;23.35;6.03;;;;;;;4.81;100.00;101084.69;5223316;28;20063;-80
2021/01/18 10:48:57;;;;;;;19.63;6.78;;;;;;;4.86;100.00;101077.78;5223844;28;20025;-80
2021/01/18 10:51:28;;;;;;;15.65;5.80;;;;;;;4.82;100.00;101070.88;5205841;28;20031;-79
2021/01/18 10:54:00;;;;;;;18.63;6.05;;;;;;;4.72;100.00;101068.34;5223856;28;20033;-79
2021/01/18 10:56:33;;;;;;;19.25;6.43;;;;;;;4.73;100.00;101065.75;5223686;28;20188;-79
2021/01/18 10:59:03;;;;;;;21.05;7.00;;;;;;;4.81;100.00;101069.16;5222629;28;20599;-80
2021/01/18 11:01:33;;;;;;;16.80;6.50;;;;;;;4.81;100.00;101068.31;5222681;28;20040;-80
2021/01/18 11:04:05;;;;;;;20.92;6.75;;;;;;;5.05;100.00;101058.69;5227102;28;20068;-79
2021/01/18 11:06:35;;;;;;;18.35;7.18;;;;;;;4.91;100.00;101055.31;5222980;28;20017;-79
2021/01/18 11:09:06;;;;;;;17.55;7.18;;;;;;;4.93;100.00;101048.38;5222538;28;20025;-79
2021/01/18 11:11:39;;;;;;;17.05;7.40;;;;;;;4.95;100.00;101044.06;5222423;28;20036;-79
2021/01/18 11:14:11;;;;;;;20.70;7.00;;;;;;;5.07;100.00;101035.34;5222794;28;20016;-79
2021/01/18 11:16:42;;;;;;;20.55;8.38;;;;;;;5.19;100.00;101049.06;5222946;28;20029;-80
2021/01/18 11:19:12;;;;;;;17.65;7.78;;;;;;;5.03;100.00;101044.88;5204643;28;20024;-78
2021/01/18 11:21:44;;;;;;;22.42;8.68;;;;;;;5.04;100.00;101037.97;5222962;28;20724;-79
2021/01/18 11:24:14;;;;;;;22.05;8.20;;;;;;;5.00;100.00;101039.69;5222209;28;20086;-79
2021/01/18 11:26:52;;;;;;;22.65;8.93;;;;;;;5.03;100.00;101042.31;5223290;28;20032;-79
2021/01/18 11:29:22;;;;;;;27.38;9.60;;;;;;;5.02;100.00;101035.41;5222727;28;20033;-79
2021/01/18 11:31:52;;;;;;;27.35;9.38;;;;;;;5.05;100.00;101026.72;5222338;28;20040;-78
2021/01/18 11:34:22;;;;;;;28.00;9.65;;;;;;;5.03;100.00;101034.53;5217231;28;20029;-79
2021/01/18 11:36:53;;;;;;;19.33;9.95;;;;;;;4.95;100.00;101036.28;5222783;28;20102;-78
2021/01/18 11:39:23;;;;;;;19.20;9.65;;;;;;;4.96;100.00;101021.63;5222301;28;20035;-79
2021/01/18 11:41:53;;;;;;;23.80;10.95;;;;;;;4.87;100.00;101022.53;5220621;28;20025;-78
2021/01/18 11:44:24;;;;;;;27.88;11.38;;;;;;;4.79;100.00;101019.13;5221956;28;20029;-79